sensor_id;sensor_type;location;lat;lon;timestamp;P1;durP1;ratioP1;P2;durP2;ratioP2
75012;SDS011;63567;49.956;20.130;2023-04-06T00:00:31;11.55;;;7.50;;
75012;SDS011;63567;49.956;20.130;2023-04-06T00:02:59;13.40;;;7.07;;
75012;SDS011;63567;49.956;20.130;2023-04-06T00:05:24;12.63;;;6.57;;
75012;SDS011;63567;49.956;20.130;2023-04-06T00:07:50;13.20;;;6.97;;
75012;SDS011;63567;49.956;20.130;2023-04-06T00:10:16;11.38;;;6.93;;
75012;SDS011;63567;49.956;20.130;2023-04-06T00:12:42;15.98;;;7.30;;
75012;SDS011;63567;49.956;20.130;2023-04-06T00:15:07;14.23;;;6.95;;
75012;SDS011;63567;49.956;20.130;2023-04-06T00:17:33;11.15;;;6.75;;
75012;SDS011;63567;49.956;20.130;2023-04-06T00:19:59;11.00;;;5.75;;
75012;SDS011;63567;49.956;20.130;2023-04-06T00:22:24;12.50;;;6.50;;
75012;SDS011;63567;49.956;20.130;2023-04-06T00:24:49;10.15;;;5.70;;
75012;SDS011;63567;49.956;20.130;2023-04-06T00:27:15;11.43;;;6.13;;
75012;SDS011;63567;49.956;20.130;2023-04-06T00:29:40;12.60;;;6.37;;
75012;SDS011;63567;49.956;20.130;2023-04-06T00:32:06;11.43;;;6.40;;
75012;SDS011;63567;49.956;20.130;2023-04-06T00:34:31;11.30;;;6.47;;
75012;SDS011;63567;49.956;20.130;2023-04-06T00:36:57;11.73;;;6.18;;
75012;SDS011;63567;49.956;20.130;2023-04-06T00:39:22;10.93;;;5.83;;
75012;SDS011;63567;49.956;20.130;2023-04-06T00:41:49;11.45;;;5.80;;
75012;SDS011;63567;49.956;20.130;2023-04-06T00:44:17;12.82;;;6.28;;
75012;SDS011;63567;49.956;20.130;2023-04-06T00:46:43;10.68;;;5.55;;
75012;SDS011;63567;49.956;20.130;2023-04-06T00:49:09;12.93;;;6.00;;
75012;SDS011;63567;49.956;20.130;2023-04-06T00:51:35;10.90;;;6.20;;
75012;SDS011;63567;49.956;20.130;2023-04-06T00:54:00;14.07;;;6.35;;
75012;SDS011;63567;49.956;20.130;2023-04-06T00:56:26;11.57;;;5.93;;
75012;SDS011;63567;49.956;20.130;2023-04-06T00:58:52;10.00;;;5.65;;
75012;SDS011;63567;49.956;20.130;2023-04-06T01:01:17;11.32;;;6.65;;
75012;SDS011;63567;49.956;20.130;2023-04-06T01:03:43;11.98;;;6.85;;
75012;SDS011;63567;49.956;20.130;2023-04-06T01:06:09;10.50;;;5.68;;
75012;SDS011;63567;49.956;20.130;2023-04-06T01:08:35;10.18;;;5.93;;
75012;SDS011;63567;49.956;20.130;2023-04-06T01:11:01;9.93;;;5.97;;
75012;SDS011;63567;49.956;20.130;2023-04-06T01:13:26;11.07;;;5.65;;
75012;SDS011;63567;49.956;20.130;2023-04-06T01:15:52;10.98;;;5.88;;
75012;SDS011;63567;49.956;20.130;2023-04-06T01:18:18;11.25;;;5.75;;
75012;SDS011;63567;49.956;20.130;2023-04-06T01:20:43;11.38;;;5.85;;
75012;SDS011;63567;49.956;20.130;2023-04-06T01:23:09;10.60;;;6.13;;
75012;SDS011;63567;49.956;20.130;2023-04-06T01:25:34;12.25;;;6.05;;
75012;SDS011;63567;49.956;20.130;2023-04-06T01:28:00;12.32;;;5.97;;
75012;SDS011;63567;49.956;20.130;2023-04-06T01:30:25;12.35;;;6.68;;
75012;SDS011;63567;49.956;20.130;2023-04-06T01:32:51;12.75;;;6.20;;
75012;SDS011;63567;49.956;20.130;2023-04-06T01:35:17;11.95;;;6.50;;
75012;SDS011;63567;49.956;20.130;2023-04-06T01:37:43;12.55;;;6.78;;
75012;SDS011;63567;49.956;20.130;2023-04-06T01:40:09;15.02;;;6.97;;
75012;SDS011;63567;49.956;20.130;2023-04-06T01:42:35;14.68;;;7.00;;
75012;SDS011;63567;49.956;20.130;2023-04-06T01:45:00;16.08;;;7.88;;
75012;SDS011;63567;49.956;20.130;2023-04-06T01:47:26;15.85;;;7.60;;
75012;SDS011;63567;49.956;20.130;2023-04-06T01:49:51;16.83;;;8.23;;
75012;SDS011;63567;49.956;20.130;2023-04-06T01:52:17;13.93;;;8.02;;
75012;SDS011;63567;49.956;20.130;2023-04-06T01:54:42;13.80;;;7.28;;
75012;SDS011;63567;49.956;20.130;2023-04-06T01:57:09;16.10;;;8.23;;
75012;SDS011;63567;49.956;20.130;2023-04-06T01:59:35;17.95;;;9.15;;
75012;SDS011;63567;49.956;20.130;2023-04-06T02:02:00;16.85;;;8.80;;
75012;SDS011;63567;49.956;20.130;2023-04-06T02:04:26;16.55;;;8.45;;
75012;SDS011;63567;49.956;20.130;2023-04-06T02:06:51;19.27;;;9.13;;
75012;SDS011;63567;49.956;20.130;2023-04-06T02:09:16;18.93;;;9.53;;
75012;SDS011;63567;49.956;20.130;2023-04-06T02:11:42;18.50;;;9.07;;
75012;SDS011;63567;49.956;20.130;2023-04-06T02:14:07;18.00;;;9.17;;
75012;SDS011;63567;49.956;20.130;2023-04-06T02:16:32;14.73;;;7.80;;
75012;SDS011;63567;49.956;20.130;2023-04-06T02:18:58;16.98;;;8.25;;
75012;SDS011;63567;49.956;20.130;2023-04-06T02:21:23;14.83;;;7.53;;
75012;SDS011;63567;49.956;20.130;2023-04-06T02:23:49;16.02;;;8.32;;
75012;SDS011;63567;49.956;20.130;2023-04-06T02:26:14;15.55;;;8.35;;
75012;SDS011;63567;49.956;20.130;2023-04-06T02:28:40;17.00;;;7.60;;
75012;SDS011;63567;49.956;20.130;2023-04-06T02:31:06;18.23;;;8.75;;
75012;SDS011;63567;49.956;20.130;2023-04-06T02:33:31;15.52;;;8.73;;
75012;SDS011;63567;49.956;20.130;2023-04-06T02:35:56;18.10;;;8.63;;
75012;SDS011;63567;49.956;20.130;2023-04-06T02:38:22;14.90;;;7.87;;
75012;SDS011;63567;49.956;20.130;2023-04-06T02:40:47;16.10;;;8.20;;
75012;SDS011;63567;49.956;20.130;2023-04-06T02:43:12;14.70;;;7.47;;
75012;SDS011;63567;49.956;20.130;2023-04-06T02:45:38;18.63;;;9.65;;
75012;SDS011;63567;49.956;20.130;2023-04-06T02:48:03;14.70;;;8.20;;
75012;SDS011;63567;49.956;20.130;2023-04-06T02:50:29;14.75;;;7.95;;
75012;SDS011;63567;49.956;20.130;2023-04-06T02:52:54;14.48;;;7.70;;
75012;SDS011;63567;49.956;20.130;2023-04-06T02:55:20;17.20;;;8.90;;
75012;SDS011;63567;49.956;20.130;2023-04-06T02:57:45;14.27;;;7.60;;
75012;SDS011;63567;49.956;20.130;2023-04-06T03:00:11;15.17;;;7.90;;
75012;SDS011;63567;49.956;20.130;2023-04-06T03:02:37;18.30;;;7.78;;
75012;SDS011;63567;49.956;20.130;2023-04-06T03:05:03;14.15;;;8.07;;
75012;SDS011;63567;49.956;20.130;2023-04-06T03:07:28;16.10;;;8.38;;
75012;SDS011;63567;49.956;20.130;2023-04-06T03:09:54;16.65;;;8.18;;
75012;SDS011;63567;49.956;20.130;2023-04-06T03:12:20;16.27;;;8.00;;
75012;SDS011;63567;49.956;20.130;2023-04-06T03:14:45;14.77;;;8.00;;
75012;SDS011;63567;49.956;20.130;2023-04-06T03:17:11;14.65;;;7.63;;
75012;SDS011;63567;49.956;20.130;2023-04-06T03:19:36;16.50;;;8.55;;
75012;SDS011;63567;49.956;20.130;2023-04-06T03:22:02;13.70;;;7.43;;
75012;SDS011;63567;49.956;20.130;2023-04-06T03:24:27;14.70;;;8.18;;
75012;SDS011;63567;49.956;20.130;2023-04-06T03:26:53;13.98;;;8.40;;
75012;SDS011;63567;49.956;20.130;2023-04-06T03:29:18;14.20;;;8.43;;
75012;SDS011;63567;49.956;20.130;2023-04-06T03:31:43;14.17;;;7.70;;
75012;SDS011;63567;49.956;20.130;2023-04-06T03:34:09;16.27;;;8.35;;
75012;SDS011;63567;49.956;20.130;2023-04-06T03:36:35;15.10;;;8.30;;
75012;SDS011;63567;49.956;20.130;2023-04-06T03:39:00;17.35;;;8.65;;
75012;SDS011;63567;49.956;20.130;2023-04-06T03:41:26;16.25;;;8.48;;
75012;SDS011;63567;49.956;20.130;2023-04-06T03:43:52;15.90;;;7.93;;
75012;SDS011;63567;49.956;20.130;2023-04-06T03:46:17;14.57;;;8.27;;
75012;SDS011;63567;49.956;20.130;2023-04-06T03:48:43;16.95;;;8.50;;
75012;SDS011;63567;49.956;20.130;2023-04-06T03:51:08;14.77;;;7.80;;
75012;SDS011;63567;49.956;20.130;2023-04-06T03:53:33;16.00;;;8.27;;
75012;SDS011;63567;49.956;20.130;2023-04-06T03:55:59;16.13;;;9.00;;
75012;SDS011;63567;49.956;20.130;2023-04-06T03:58:24;18.45;;;8.82;;
75012;SDS011;63567;49.956;20.130;2023-04-06T04:00:50;16.55;;;9.32;;
75012;SDS011;63567;49.956;20.130;2023-04-06T04:03:15;17.25;;;8.55;;
75012;SDS011;63567;49.956;20.130;2023-04-06T04:05:40;16.85;;;9.20;;
75012;SDS011;63567;49.956;20.130;2023-04-06T04:08:06;15.98;;;9.13;;
75012;SDS011;63567;49.956;20.130;2023-04-06T04:10:31;16.23;;;7.85;;
75012;SDS011;63567;49.956;20.130;2023-04-06T04:12:57;15.43;;;8.70;;
75012;SDS011;63567;49.956;20.130;2023-04-06T04:15:22;18.73;;;9.07;;
75012;SDS011;63567;49.956;20.130;2023-04-06T04:17:47;14.20;;;7.78;;
75012;SDS011;63567;49.956;20.130;2023-04-06T04:20:14;21.00;;;10.85;;
75012;SDS011;63567;49.956;20.130;2023-04-06T04:22:41;17.38;;;9.45;;
75012;SDS011;63567;49.956;20.130;2023-04-06T04:25:06;15.85;;;8.52;;
75012;SDS011;63567;49.956;20.130;2023-04-06T04:27:32;17.65;;;9.10;;
75012;SDS011;63567;49.956;20.130;2023-04-06T04:29:57;16.60;;;8.57;;
75012;SDS011;63567;49.956;20.130;2023-04-06T04:32:23;15.75;;;8.27;;
75012;SDS011;63567;49.956;20.130;2023-04-06T04:34:52;17.30;;;9.27;;
75012;SDS011;63567;49.956;20.130;2023-04-06T04:37:17;14.40;;;8.57;;
75012;SDS011;63567;49.956;20.130;2023-04-06T04:39:43;16.55;;;8.40;;
75012;SDS011;63567;49.956;20.130;2023-04-06T04:42:10;17.25;;;8.30;;
75012;SDS011;63567;49.956;20.130;2023-04-06T04:44:35;18.77;;;9.70;;
75012;SDS011;63567;49.956;20.130;2023-04-06T04:47:01;21.42;;;8.07;;
75012;SDS011;63567;49.956;20.130;2023-04-06T04:49:26;18.30;;;9.43;;
75012;SDS011;63567;49.956;20.130;2023-04-06T04:51:51;15.90;;;8.33;;
75012;SDS011;63567;49.956;20.130;2023-04-06T04:54:17;15.25;;;8.82;;
75012;SDS011;63567;49.956;20.130;2023-04-06T04:56:44;17.58;;;8.52;;
75012;SDS011;63567;49.956;20.130;2023-04-06T04:59:09;16.48;;;9.07;;
75012;SDS011;63567;49.956;20.130;2023-04-06T05:01:35;17.92;;;9.38;;
75012;SDS011;63567;49.956;20.130;2023-04-06T05:04:00;16.40;;;8.45;;
75012;SDS011;63567;49.956;20.130;2023-04-06T05:06:26;16.00;;;7.70;;
75012;SDS011;63567;49.956;20.130;2023-04-06T05:08:51;14.65;;;8.32;;
75012;SDS011;63567;49.956;20.130;2023-04-06T05:11:16;15.48;;;9.05;;
75012;SDS011;63567;49.956;20.130;2023-04-06T05:13:42;19.55;;;9.82;;
75012;SDS011;63567;49.956;20.130;2023-04-06T05:16:07;22.92;;;10.68;;
75012;SDS011;63567;49.956;20.130;2023-04-06T05:18:33;18.15;;;9.32;;
75012;SDS011;63567;49.956;20.130;2023-04-06T05:20:59;18.23;;;9.70;;
75012;SDS011;63567;49.956;20.130;2023-04-06T05:23:24;18.83;;;9.85;;
75012;SDS011;63567;49.956;20.130;2023-04-06T05:25:49;16.65;;;9.38;;
75012;SDS011;63567;49.956;20.130;2023-04-06T05:28:15;17.00;;;9.50;;
75012;SDS011;63567;49.956;20.130;2023-04-06T05:30:42;18.13;;;9.18;;
75012;SDS011;63567;49.956;20.130;2023-04-06T05:33:08;17.80;;;9.30;;
75012;SDS011;63567;49.956;20.130;2023-04-06T05:35:34;16.25;;;8.95;;
75012;SDS011;63567;49.956;20.130;2023-04-06T05:37:59;14.93;;;9.18;;
75012;SDS011;63567;49.956;20.130;2023-04-06T05:40:25;17.30;;;9.45;;
75012;SDS011;63567;49.956;20.130;2023-04-06T05:42:51;17.42;;;9.75;;
75012;SDS011;63567;49.956;20.130;2023-04-06T05:45:16;19.13;;;11.32;;
75012;SDS011;63567;49.956;20.130;2023-04-06T05:47:43;17.13;;;9.80;;
75012;SDS011;63567;49.956;20.130;2023-04-06T05:50:09;18.17;;;8.90;;
75012;SDS011;63567;49.956;20.130;2023-04-06T05:52:35;19.17;;;10.15;;
75012;SDS011;63567;49.956;20.130;2023-04-06T05:55:00;18.73;;;9.23;;
75012;SDS011;63567;49.956;20.130;2023-04-06T05:57:26;19.57;;;10.37;;
75012;SDS011;63567;49.956;20.130;2023-04-06T05:59:51;16.02;;;10.05;;
75012;SDS011;63567;49.956;20.130;2023-04-06T06:02:17;19.02;;;10.18;;
75012;SDS011;63567;49.956;20.130;2023-04-06T06:04:42;20.42;;;10.35;;
75012;SDS011;63567;49.956;20.130;2023-04-06T06:07:08;19.08;;;10.73;;
75012;SDS011;63567;49.956;20.130;2023-04-06T06:09:33;16.27;;;8.80;;
75012;SDS011;63567;49.956;20.130;2023-04-06T06:11:59;19.63;;;10.07;;
75012;SDS011;63567;49.956;20.130;2023-04-06T06:14:24;18.15;;;9.40;;
75012;SDS011;63567;49.956;20.130;2023-04-06T06:16:50;19.80;;;9.27;;
75012;SDS011;63567;49.956;20.130;2023-04-06T06:19:15;18.93;;;10.13;;
75012;SDS011;63567;49.956;20.130;2023-04-06T06:21:41;16.38;;;8.55;;
75012;SDS011;63567;49.956;20.130;2023-04-06T06:24:06;17.00;;;9.47;;
75012;SDS011;63567;49.956;20.130;2023-04-06T06:26:32;15.25;;;8.95;;
75012;SDS011;63567;49.956;20.130;2023-04-06T06:28:57;18.92;;;9.95;;
75012;SDS011;63567;49.956;20.130;2023-04-06T06:31:23;20.20;;;11.10;;
75012;SDS011;63567;49.956;20.130;2023-04-06T06:33:49;18.98;;;9.65;;
75012;SDS011;63567;49.956;20.130;2023-04-06T06:36:16;16.38;;;9.25;;
75012;SDS011;63567;49.956;20.130;2023-04-06T06:38:42;16.00;;;8.15;;
75012;SDS011;63567;49.956;20.130;2023-04-06T06:41:08;18.33;;;9.20;;
75012;SDS011;63567;49.956;20.130;2023-04-06T06:43:33;21.55;;;9.82;;
75012;SDS011;63567;49.956;20.130;2023-04-06T06:45:58;16.40;;;8.65;;
75012;SDS011;63567;49.956;20.130;2023-04-06T06:48:24;15.70;;;8.50;;
75012;SDS011;63567;49.956;20.130;2023-04-06T06:50:50;14.93;;;7.97;;
75012;SDS011;63567;49.956;20.130;2023-04-06T06:53:15;15.27;;;8.33;;
75012;SDS011;63567;49.956;20.130;2023-04-06T06:55:40;16.98;;;9.32;;
75012;SDS011;63567;49.956;20.130;2023-04-06T06:58:06;19.20;;;9.65;;
75012;SDS011;63567;49.956;20.130;2023-04-06T07:00:31;12.73;;;7.75;;
75012;SDS011;63567;49.956;20.130;2023-04-06T07:02:57;15.30;;;7.22;;
75012;SDS011;63567;49.956;20.130;2023-04-06T07:05:22;15.90;;;8.02;;
75012;SDS011;63567;49.956;20.130;2023-04-06T07:07:48;13.45;;;7.32;;
75012;SDS011;63567;49.956;20.130;2023-04-06T07:10:13;15.43;;;6.70;;
75012;SDS011;63567;49.956;20.130;2023-04-06T07:12:39;12.67;;;7.00;;
75012;SDS011;63567;49.956;20.130;2023-04-06T07:15:04;13.40;;;6.05;;
75012;SDS011;63567;49.956;20.130;2023-04-06T07:17:30;13.35;;;6.85;;
75012;SDS011;63567;49.956;20.130;2023-04-06T07:19:59;13.73;;;5.78;;
75012;SDS011;63567;49.956;20.130;2023-04-06T07:22:24;12.35;;;6.78;;
75012;SDS011;63567;49.956;20.130;2023-04-06T07:24:50;14.57;;;7.07;;
75012;SDS011;63567;49.956;20.130;2023-04-06T07:27:15;12.45;;;5.70;;
75012;SDS011;63567;49.956;20.130;2023-04-06T07:29:42;11.68;;;6.50;;
75012;SDS011;63567;49.956;20.130;2023-04-06T07:32:07;9.57;;;5.32;;
75012;SDS011;63567;49.956;20.130;2023-04-06T07:34:33;10.38;;;5.25;;
75012;SDS011;63567;49.956;20.130;2023-04-06T07:36:58;11.83;;;6.50;;
75012;SDS011;63567;49.956;20.130;2023-04-06T07:39:25;13.98;;;6.30;;
75012;SDS011;63567;49.956;20.130;2023-04-06T07:41:52;11.90;;;6.53;;
75012;SDS011;63567;49.956;20.130;2023-04-06T07:44:17;11.82;;;6.40;;
75012;SDS011;63567;49.956;20.130;2023-04-06T07:46:43;12.18;;;5.60;;
75012;SDS011;63567;49.956;20.130;2023-04-06T07:49:08;11.95;;;6.40;;
75012;SDS011;63567;49.956;20.130;2023-04-06T07:51:35;10.77;;;6.05;;
75012;SDS011;63567;49.956;20.130;2023-04-06T07:54:04;11.60;;;6.35;;
75012;SDS011;63567;49.956;20.130;2023-04-06T07:56:30;9.32;;;5.75;;
75012;SDS011;63567;49.956;20.130;2023-04-06T07:58:56;11.02;;;5.63;;
75012;SDS011;63567;49.956;20.130;2023-04-06T08:01:23;8.65;;;5.10;;
75012;SDS011;63567;49.956;20.130;2023-04-06T08:03:49;9.85;;;6.10;;
75012;SDS011;63567;49.956;20.130;2023-04-06T08:06:15;13.57;;;6.20;;
75012;SDS011;63567;49.956;20.130;2023-04-06T08:08:41;12.02;;;7.32;;
75012;SDS011;63567;49.956;20.130;2023-04-06T08:11:06;11.07;;;6.43;;
75012;SDS011;63567;49.956;20.130;2023-04-06T08:13:32;15.60;;;7.00;;
75012;SDS011;63567;49.956;20.130;2023-04-06T08:15:58;10.30;;;6.07;;
75012;SDS011;63567;49.956;20.130;2023-04-06T08:18:24;9.50;;;5.93;;
75012;SDS011;63567;49.956;20.130;2023-04-06T08:20:50;9.35;;;5.38;;
75012;SDS011;63567;49.956;20.130;2023-04-06T08:23:16;10.35;;;6.07;;
75012;SDS011;63567;49.956;20.130;2023-04-06T08:25:41;9.68;;;5.53;;
75012;SDS011;63567;49.956;20.130;2023-04-06T08:28:07;9.43;;;6.10;;
75012;SDS011;63567;49.956;20.130;2023-04-06T08:30:34;9.82;;;5.70;;
75012;SDS011;63567;49.956;20.130;2023-04-06T08:33:00;9.85;;;5.78;;
75012;SDS011;63567;49.956;20.130;2023-04-06T08:35:26;9.93;;;5.85;;
75012;SDS011;63567;49.956;20.130;2023-04-06T08:37:52;9.93;;;5.55;;
75012;SDS011;63567;49.956;20.130;2023-04-06T08:40:17;9.87;;;5.23;;
75012;SDS011;63567;49.956;20.130;2023-04-06T08:42:50;9.70;;;5.55;;
75012;SDS011;63567;49.956;20.130;2023-04-06T08:45:20;6.18;;;4.75;;
75012;SDS011;63567;49.956;20.130;2023-04-06T08:47:49;9.18;;;5.05;;
75012;SDS011;63567;49.956;20.130;2023-04-06T08:50:16;8.40;;;5.45;;
75012;SDS011;63567;49.956;20.130;2023-04-06T08:52:43;7.22;;;4.88;;
75012;SDS011;63567;49.956;20.130;2023-04-06T08:55:09;9.25;;;4.97;;
75012;SDS011;63567;49.956;20.130;2023-04-06T08:57:35;9.23;;;6.50;;
75012;SDS011;63567;49.956;20.130;2023-04-06T09:00:01;10.68;;;6.25;;
75012;SDS011;63567;49.956;20.130;2023-04-06T09:02:27;8.63;;;5.50;;
75012;SDS011;63567;49.956;20.130;2023-04-06T09:04:53;8.77;;;5.68;;
75012;SDS011;63567;49.956;20.130;2023-04-06T09:07:19;8.65;;;4.93;;
75012;SDS011;63567;49.956;20.130;2023-04-06T09:09:44;10.13;;;5.63;;
75012;SDS011;63567;49.956;20.130;2023-04-06T09:12:22;7.90;;;5.20;;
75012;SDS011;63567;49.956;20.130;2023-04-06T09:14:49;7.40;;;4.85;;
75012;SDS011;63567;49.956;20.130;2023-04-06T09:17:31;10.52;;;6.18;;
75012;SDS011;63567;49.956;20.130;2023-04-06T09:19:59;9.88;;;5.80;;
75012;SDS011;63567;49.956;20.130;2023-04-06T09:22:25;7.90;;;5.30;;
75012;SDS011;63567;49.956;20.130;2023-04-06T09:24:52;8.90;;;5.95;;
75012;SDS011;63567;49.956;20.130;2023-04-06T09:27:31;8.40;;;5.30;;
75012;SDS011;63567;49.956;20.130;2023-04-06T09:30:07;10.15;;;5.35;;
75012;SDS011;63567;49.956;20.130;2023-04-06T09:32:43;8.02;;;4.93;;
75012;SDS011;63567;49.956;20.130;2023-04-06T09:35:12;11.75;;;5.80;;
75012;SDS011;63567;49.956;20.130;2023-04-06T09:37:38;9.00;;;5.60;;
75012;SDS011;63567;49.956;20.130;2023-04-06T09:40:04;8.68;;;4.97;;
75012;SDS011;63567;49.956;20.130;2023-04-06T09:42:30;8.95;;;5.75;;
75012;SDS011;63567;49.956;20.130;2023-04-06T09:44:56;9.32;;;4.85;;
75012;SDS011;63567;49.956;20.130;2023-04-06T09:47:22;10.38;;;4.93;;
75012;SDS011;63567;49.956;20.130;2023-04-06T09:49:53;9.48;;;4.93;;
75012;SDS011;63567;49.956;20.130;2023-04-06T09:52:23;8.30;;;5.20;;
75012;SDS011;63567;49.956;20.130;2023-04-06T09:55:10;8.32;;;5.43;;
75012;SDS011;63567;49.956;20.130;2023-04-06T09:57:44;9.20;;;4.95;;
75012;SDS011;63567;49.956;20.130;2023-04-06T10:00:16;9.15;;;5.47;;
75012;SDS011;63567;49.956;20.130;2023-04-06T10:05:37;9.68;;;5.72;;
75012;SDS011;63567;49.956;20.130;2023-04-06T10:08:11;11.07;;;6.05;;
75012;SDS011;63567;49.956;20.130;2023-04-06T10:10:38;12.70;;;6.38;;
75012;SDS011;63567;49.956;20.130;2023-04-06T10:13:04;10.85;;;6.15;;
75012;SDS011;63567;49.956;20.130;2023-04-06T10:15:30;10.50;;;6.25;;
75012;SDS011;63567;49.956;20.130;2023-04-06T10:17:59;11.45;;;6.00;;
75012;SDS011;63567;49.956;20.130;2023-04-06T10:23:47;12.10;;;7.38;;
75012;SDS011;63567;49.956;20.130;2023-04-06T10:26:15;11.30;;;6.45;;
75012;SDS011;63567;49.956;20.130;2023-04-06T10:28:42;11.45;;;6.57;;
75012;SDS011;63567;49.956;20.130;2023-04-06T10:31:10;12.02;;;6.50;;
75012;SDS011;63567;49.956;20.130;2023-04-06T10:33:35;11.40;;;6.25;;
75012;SDS011;63567;49.956;20.130;2023-04-06T10:36:14;10.73;;;6.90;;
75012;SDS011;63567;49.956;20.130;2023-04-06T10:38:41;12.73;;;6.47;;
75012;SDS011;63567;49.956;20.130;2023-04-06T10:41:08;13.73;;;6.70;;
75012;SDS011;63567;49.956;20.130;2023-04-06T10:43:35;11.48;;;6.22;;
75012;SDS011;63567;49.956;20.130;2023-04-06T10:46:01;10.70;;;6.85;;
75012;SDS011;63567;49.956;20.130;2023-04-06T10:48:41;10.38;;;6.32;;
75012;SDS011;63567;49.956;20.130;2023-04-06T10:51:09;13.55;;;7.45;;
75012;SDS011;63567;49.956;20.130;2023-04-06T10:53:36;12.32;;;7.25;;
75012;SDS011;63567;49.956;20.130;2023-04-06T10:56:01;11.68;;;6.95;;
75012;SDS011;63567;49.956;20.130;2023-04-06T10:58:27;11.85;;;7.28;;
75012;SDS011;63567;49.956;20.130;2023-04-06T11:00:53;12.98;;;6.78;;
75012;SDS011;63567;49.956;20.130;2023-04-06T11:03:20;11.48;;;7.20;;
75012;SDS011;63567;49.956;20.130;2023-04-06T11:05:50;14.82;;;7.95;;
75012;SDS011;63567;49.956;20.130;2023-04-06T11:08:25;15.32;;;8.05;;
75012;SDS011;63567;49.956;20.130;2023-04-06T11:10:52;13.43;;;7.85;;
75012;SDS011;63567;49.956;20.130;2023-04-06T11:16:03;14.30;;;7.40;;
75012;SDS011;63567;49.956;20.130;2023-04-06T11:18:29;12.32;;;7.45;;
75012;SDS011;63567;49.956;20.130;2023-04-06T11:20:55;13.88;;;7.38;;
75012;SDS011;63567;49.956;20.130;2023-04-06T11:23:23;12.68;;;6.88;;
75012;SDS011;63567;49.956;20.130;2023-04-06T11:25:54;12.52;;;7.35;;
75012;SDS011;63567;49.956;20.130;2023-04-06T11:28:20;12.98;;;7.43;;
75012;SDS011;63567;49.956;20.130;2023-04-06T11:30:45;13.40;;;7.82;;
75012;SDS011;63567;49.956;20.130;2023-04-06T11:33:19;14.23;;;8.57;;
75012;SDS011;63567;49.956;20.130;2023-04-06T11:35:46;19.73;;;11.00;;
75012;SDS011;63567;49.956;20.130;2023-04-06T11:38:11;19.05;;;11.07;;
75012;SDS011;63567;49.956;20.130;2023-04-06T11:40:37;14.02;;;8.60;;
75012;SDS011;63567;49.956;20.130;2023-04-06T11:43:03;15.02;;;9.55;;
75012;SDS011;63567;49.956;20.130;2023-04-06T11:45:38;15.18;;;9.13;;
75012;SDS011;63567;49.956;20.130;2023-04-06T11:48:06;12.65;;;8.00;;
75012;SDS011;63567;49.956;20.130;2023-04-06T11:50:42;14.57;;;8.98;;
75012;SDS011;63567;49.956;20.130;2023-04-06T11:53:07;14.47;;;7.37;;
75012;SDS011;63567;49.956;20.130;2023-04-06T11:55:37;12.80;;;7.77;;
75012;SDS011;63567;49.956;20.130;2023-04-06T11:58:03;15.10;;;7.57;;
75012;SDS011;63567;49.956;20.130;2023-04-06T12:00:29;13.23;;;7.93;;
75012;SDS011;63567;49.956;20.130;2023-04-06T12:02:59;11.93;;;7.15;;
75012;SDS011;63567;49.956;20.130;2023-04-06T12:05:25;12.85;;;7.15;;
75012;SDS011;63567;49.956;20.130;2023-04-06T12:07:50;14.32;;;7.10;;
75012;SDS011;63567;49.956;20.130;2023-04-06T12:10:16;10.55;;;6.50;;
75012;SDS011;63567;49.956;20.130;2023-04-06T12:12:41;12.00;;;7.00;;
75012;SDS011;63567;49.956;20.130;2023-04-06T12:15:06;14.48;;;7.55;;
75012;SDS011;63567;49.956;20.130;2023-04-06T12:17:32;11.25;;;6.68;;
75012;SDS011;63567;49.956;20.130;2023-04-06T12:19:58;13.55;;;8.40;;
75012;SDS011;63567;49.956;20.130;2023-04-06T12:22:23;13.45;;;8.20;;
75012;SDS011;63567;49.956;20.130;2023-04-06T12:24:48;12.52;;;7.72;;
75012;SDS011;63567;49.956;20.130;2023-04-06T12:27:14;12.33;;;7.50;;
75012;SDS011;63567;49.956;20.130;2023-04-06T12:29:39;12.60;;;7.13;;
75012;SDS011;63567;49.956;20.130;2023-04-06T12:32:05;13.48;;;7.75;;
75012;SDS011;63567;49.956;20.130;2023-04-06T12:34:31;13.85;;;7.65;;
75012;SDS011;63567;49.956;20.130;2023-04-06T12:36:56;12.73;;;7.40;;
75012;SDS011;63567;49.956;20.130;2023-04-06T12:39:22;11.70;;;7.75;;
75012;SDS011;63567;49.956;20.130;2023-04-06T12:41:47;12.02;;;6.65;;
75012;SDS011;63567;49.956;20.130;2023-04-06T12:44:12;13.27;;;7.27;;
75012;SDS011;63567;49.956;20.130;2023-04-06T12:46:38;11.60;;;7.17;;
75012;SDS011;63567;49.956;20.130;2023-04-06T12:49:03;12.27;;;7.57;;
75012;SDS011;63567;49.956;20.130;2023-04-06T12:51:29;11.20;;;7.00;;
75012;SDS011;63567;49.956;20.130;2023-04-06T12:53:56;13.45;;;7.25;;
75012;SDS011;63567;49.956;20.130;2023-04-06T12:56:21;12.93;;;7.32;;
75012;SDS011;63567;49.956;20.130;2023-04-06T12:58:47;12.35;;;7.05;;
75012;SDS011;63567;49.956;20.130;2023-04-06T13:01:13;14.30;;;7.38;;
75012;SDS011;63567;49.956;20.130;2023-04-06T13:03:39;13.57;;;7.07;;
75012;SDS011;63567;49.956;20.130;2023-04-06T13:06:05;12.60;;;7.30;;
75012;SDS011;63567;49.956;20.130;2023-04-06T13:08:33;10.90;;;6.68;;
75012;SDS011;63567;49.956;20.130;2023-04-06T13:10:59;12.95;;;7.50;;
75012;SDS011;63567;49.956;20.130;2023-04-06T13:13:27;13.30;;;7.17;;
75012;SDS011;63567;49.956;20.130;2023-04-06T13:18:23;14.00;;;7.72;;
75012;SDS011;63567;49.956;20.130;2023-04-06T13:20:49;13.05;;;7.60;;
75012;SDS011;63567;49.956;20.130;2023-04-06T13:23:14;14.48;;;6.93;;
75012;SDS011;63567;49.956;20.130;2023-04-06T13:25:40;14.10;;;8.10;;
75012;SDS011;63567;49.956;20.130;2023-04-06T13:28:07;13.30;;;8.10;;
75012;SDS011;63567;49.956;20.130;2023-04-06T13:30:33;13.20;;;7.43;;
75012;SDS011;63567;49.956;20.130;2023-04-06T13:32:59;17.23;;;8.30;;
75012;SDS011;63567;49.956;20.130;2023-04-06T13:35:24;15.18;;;8.40;;
75012;SDS011;63567;49.956;20.130;2023-04-06T13:37:50;14.98;;;8.52;;
75012;SDS011;63567;49.956;20.130;2023-04-06T13:40:17;16.83;;;9.43;;
75012;SDS011;63567;49.956;20.130;2023-04-06T13:42:43;14.40;;;8.00;;
75012;SDS011;63567;49.956;20.130;2023-04-06T13:45:10;15.93;;;8.88;;
75012;SDS011;63567;49.956;20.130;2023-04-06T13:47:35;17.60;;;9.50;;
75012;SDS011;63567;49.956;20.130;2023-04-06T13:50:01;14.70;;;9.23;;
75012;SDS011;63567;49.956;20.130;2023-04-06T13:52:27;17.33;;;9.40;;
75012;SDS011;63567;49.956;20.130;2023-04-06T13:54:52;16.40;;;9.10;;
75012;SDS011;63567;49.956;20.130;2023-04-06T13:57:17;17.52;;;9.82;;
75012;SDS011;63567;49.956;20.130;2023-04-06T13:59:43;17.63;;;10.80;;
75012;SDS011;63567;49.956;20.130;2023-04-06T14:02:09;17.40;;;9.27;;
75012;SDS011;63567;49.956;20.130;2023-04-06T14:04:35;16.30;;;9.38;;
75012;SDS011;63567;49.956;20.130;2023-04-06T14:07:02;17.73;;;9.73;;
75012;SDS011;63567;49.956;20.130;2023-04-06T14:09:28;16.88;;;9.93;;
75012;SDS011;63567;49.956;20.130;2023-04-06T14:11:54;19.60;;;10.02;;
75012;SDS011;63567;49.956;20.130;2023-04-06T14:14:20;17.58;;;10.02;;
75012;SDS011;63567;49.956;20.130;2023-04-06T14:16:46;17.95;;;9.55;;
75012;SDS011;63567;49.956;20.130;2023-04-06T14:19:13;17.70;;;9.93;;
75012;SDS011;63567;49.956;20.130;2023-04-06T14:21:40;17.85;;;9.27;;
75012;SDS011;63567;49.956;20.130;2023-04-06T14:24:07;17.33;;;10.23;;
75012;SDS011;63567;49.956;20.130;2023-04-06T14:26:36;18.27;;;9.70;;
75012;SDS011;63567;49.956;20.130;2023-04-06T14:29:02;17.10;;;9.93;;